createdAt,value
2017-02-21T00:00:49.884Z,21.53
2017-02-21T00:01:50.285Z,21.61
2017-02-21T00:02:49.934Z,21.56
2017-02-21T00:03:49.955Z,21.47
2017-02-21T00:04:50.367Z,21.58
2017-02-21T00:05:50.400Z,21.54
2017-02-21T00:06:50.417Z,21.46
2017-02-21T00:07:50.453Z,21.5
2017-02-21T00:08:49.694Z,21.49
2017-02-21T00:09:50.507Z,21.49
2017-02-21T00:10:50.164Z,21.47
2017-02-21T00:11:49.772Z,21.46
2017-02-21T00:12:50.067Z,21.49
2017-02-21T00:13:50.634Z,21.47
2017-02-21T00:14:50.671Z,21.43
2017-02-21T00:15:50.275Z,21.5
2017-02-21T00:16:49.920Z,21.44
2017-02-21T00:17:50.576Z,21.44
2017-02-21T00:18:50.366Z,21.38
2017-02-21T00:19:50.803Z,21.4
2017-02-21T00:20:50.811Z,21.43
2017-02-21T00:21:50.852Z,21.43
2017-02-21T00:22:50.712Z,21.43
2017-02-21T00:23:50.502Z,21.43
2017-02-21T00:24:50.930Z,21.42
2017-02-21T00:25:50.155Z,21.37
2017-02-21T00:26:50.625Z,21.38
2017-02-21T00:27:51.253Z,21.37
2017-02-21T00:28:50.641Z,21.35
2017-02-21T00:29:50.662Z,21.43
2017-02-21T00:30:50.710Z,21.35
2017-02-21T00:31:51.111Z,21.4
2017-02-21T00:32:51.001Z,21.37
2017-02-21T00:33:51.164Z,21.35
2017-02-21T00:34:50.810Z,21.4
2017-02-21T00:35:51.218Z,21.42
2017-02-21T00:36:51.252Z,21.32
2017-02-21T00:37:51.546Z,21.37
2017-02-21T00:38:51.332Z,21.35
2017-02-21T00:39:50.916Z,21.32
2017-02-21T00:40:51.369Z,21.4
2017-02-21T00:41:51.375Z,21.31
2017-02-21T00:42:50.637Z,21.4
2017-02-21T00:43:51.041Z,21.32
2017-02-21T00:44:51.503Z,21.35
2017-02-21T00:45:51.485Z,21.27
2017-02-21T00:46:51.538Z,21.32
2017-02-21T00:47:51.400Z,21.38
2017-02-21T00:48:51.184Z,21.31
2017-02-21T00:49:51.593Z,21.34
2017-02-21T00:50:50.841Z,21.32
2017-02-21T00:51:51.254Z,21.27
2017-02-21T00:52:51.539Z,21.27
2017-02-21T00:53:51.716Z,21.31
2017-02-21T00:54:51.740Z,21.27
2017-02-21T00:55:51.355Z,21.24
2017-02-21T00:56:51.411Z,21.22
2017-02-21T00:57:51.659Z,21.34
2017-02-21T00:58:51.452Z,21.25
2017-02-21T00:59:51.469Z,21.22
2017-02-21T01:00:51.901Z,21.32
2017-02-21T01:01:51.918Z,21.28
2017-02-21T01:02:52.215Z,21.31
2017-02-21T01:03:51.208Z,21.22
2017-02-21T01:04:51.644Z,21.21
2017-02-21T01:05:51.245Z,21.34
2017-02-21T01:06:51.266Z,21.27
2017-02-21T01:07:51.546Z,21.14
2017-02-21T01:08:51.720Z,21.25
2017-02-21T01:09:51.361Z,21.28
2017-02-21T01:10:52.193Z,21.29
2017-02-21T01:11:52.194Z,21.25
2017-02-21T01:12:52.502Z,21.28
2017-02-21T01:13:51.864Z,21.22
2017-02-21T01:14:52.296Z,21.28
2017-02-21T01:15:52.317Z,21.29
2017-02-21T01:16:52.346Z,21.29
2017-02-21T01:17:52.609Z,21.29
2017-02-21T01:18:51.612Z,21.29
2017-02-21T01:19:51.628Z,21.19
2017-02-21T01:20:52.455Z,21.27
2017-02-21T01:21:52.477Z,21.19
2017-02-21T01:22:52.365Z,21.29
2017-02-21T01:23:52.527Z,21.24
2017-02-21T01:24:52.564Z,21.19
2017-02-21T01:25:51.776Z,21.24
2017-02-21T01:26:52.869Z,21.19
2017-02-21T01:27:52.233Z,21.22
2017-02-21T01:28:52.690Z,21.13
2017-02-21T01:30:24.363Z,21.17
2017-02-21T01:31:57.519Z,21.17
2017-02-21T01:32:07.937Z,21.27
2017-02-21T01:33:07.949Z,21.21
2017-02-21T01:34:07.593Z,21.21
2017-02-21T01:35:07.590Z,21.16
2017-02-21T01:36:07.616Z,21.22
2017-02-21T01:37:07.901Z,21.13
2017-02-21T01:38:08.078Z,21.21
2017-02-21T01:39:07.707Z,21.14
2017-02-21T01:40:08.139Z,21.12
2017-02-21T01:41:07.368Z,21.17
2017-02-21T01:42:08.037Z,21.24
2017-02-21T01:43:08.211Z,21.17
2017-02-21T01:44:07.854Z,21.17
2017-02-21T01:45:07.869Z,21.19
2017-02-21T01:46:07.495Z,21.17
2017-02-21T01:47:08.171Z,21.13
2017-02-21T01:48:07.948Z,21.13
2017-02-21T01:49:07.578Z,21.16
2017-02-21T01:50:08.001Z,21.21
2017-02-21T01:51:08.419Z,21.17
2017-02-21T01:52:08.306Z,21.06
2017-02-21T01:53:08.089Z,21.13
2017-02-21T01:54:08.117Z,21.12
2017-02-21T01:55:08.155Z,21.1
2017-02-21T01:56:08.563Z,21.19
2017-02-21T01:57:08.463Z,21.1
2017-02-21T01:58:08.219Z,21.14
2017-02-21T01:59:08.646Z,21.1
2017-02-21T02:00:08.296Z,21.13
2017-02-21T02:01:07.894Z,21.13
2017-02-21T02:02:08.986Z,21.13
2017-02-21T02:03:08.756Z,21.1
2017-02-21T02:04:07.993Z,21.03
2017-02-21T02:05:08.033Z,21.07
2017-02-21T02:06:08.830Z,21.06
2017-02-21T02:07:09.107Z,21.13
2017-02-21T02:08:08.895Z,21.13
2017-02-21T02:09:08.917Z,21.07
2017-02-21T02:10:08.944Z,21.1
2017-02-21T02:11:08.969Z,21.14
2017-02-21T02:12:09.258Z,21.07
2017-02-21T02:13:08.240Z,21.1
2017-02-21T02:14:09.062Z,21.13
2017-02-21T02:15:08.713Z,21.09
2017-02-21T02:16:08.309Z,21.12
2017-02-21T02:17:08.730Z,21.12
2017-02-21T02:18:09.163Z,21.07
2017-02-21T02:19:08.788Z,21.09
2017-02-21T02:20:08.817Z,21.07
2017-02-21T02:21:09.252Z,21.14
2017-02-21T02:22:09.262Z,21.06
2017-02-21T02:23:09.307Z,21.07
2017-02-21T02:24:08.531Z,21.12
2017-02-21T02:25:08.949Z,21.04
2017-02-21T02:26:09.377Z,21.09
2017-02-21T02:27:08.609Z,21.07
2017-02-21T02:28:09.423Z,21.06
2017-02-21T02:29:09.059Z,21.04
2017-02-21T02:30:08.691Z,21.09
2017-02-21T02:31:09.125Z,21.06
2017-02-21T02:32:09.173Z,21.03
2017-02-21T02:33:09.566Z,21.06
2017-02-21T02:34:09.191Z,21.1
2017-02-21T02:35:09.220Z,21.03
2017-02-21T02:36:08.860Z,21.07
2017-02-21T02:37:09.281Z,21.04
2017-02-21T02:38:09.313Z,21.04
2017-02-21T02:39:09.718Z,21.07
2017-02-21T02:40:09.752Z,21.01
2017-02-21T02:41:08.978Z,21.06
2017-02-21T02:42:09.409Z,21.01
2017-02-21T02:43:10.087Z,21.06
2017-02-21T02:44:09.462Z,21.03
2017-02-21T02:45:09.492Z,21.06
2017-02-21T02:46:09.924Z,21.03
2017-02-21T02:47:09.940Z,21.01
2017-02-21T02:48:09.825Z,21.06
2017-02-21T02:49:09.602Z,21.03
2017-02-21T02:50:09.622Z,20.97
2017-02-21T02:51:10.051Z,21.01
2017-02-21T02:52:09.676Z,21.01
2017-02-21T02:53:10.016Z,20.99
2017-02-21T02:54:09.334Z,20.97
2017-02-21T02:55:10.158Z,20.94
2017-02-21T02:56:10.183Z,21.01
2017-02-21T02:57:09.840Z,21.06
2017-02-21T02:58:10.497Z,21.07
2017-02-21T02:59:10.281Z,20.99
2017-02-21T03:00:10.298Z,21.09
2017-02-21T03:01:09.922Z,20.95
2017-02-21T03:02:09.558Z,20.91
2017-02-21T03:03:10.624Z,21.01
2017-02-21T03:04:10.441Z,21.04
2017-02-21T03:05:09.637Z,21.06
2017-02-21T03:06:10.467Z,21.03
2017-02-21T03:07:10.095Z,21.04
2017-02-21T03:08:10.772Z,20.99
2017-02-21T03:09:10.536Z,20.99
2017-02-21T03:10:10.197Z,20.97
2017-02-21T03:11:10.208Z,20.95
2017-02-21T03:12:10.622Z,21.01
2017-02-21T03:13:10.103Z,21.03
2017-02-21T03:14:10.672Z,20.99
2017-02-21T03:15:10.305Z,20.95
2017-02-21T03:16:10.325Z,21.03
2017-02-21T03:17:10.360Z,20.95
2017-02-21T03:18:10.631Z,20.98
2017-02-21T03:19:10.024Z,20.97
2017-02-21T03:20:10.044Z,20.95
2017-02-21T03:21:10.473Z,20.92
2017-02-21T03:22:10.881Z,20.97
2017-02-21T03:23:11.162Z,20.95
2017-02-21T03:24:10.544Z,20.97
2017-02-21T03:25:10.967Z,20.95
2017-02-21T03:26:10.604Z,21.07
2017-02-21T03:27:11.030Z,20.97
2017-02-21T03:28:10.661Z,21.01
2017-02-21T03:29:11.074Z,20.95
2017-02-21T03:30:10.711Z,20.98
2017-02-21T03:31:10.337Z,20.95
2017-02-21T03:32:10.765Z,21.01
2017-02-21T03:33:11.187Z,20.97
2017-02-21T03:34:11.207Z,20.88
2017-02-21T03:35:11.244Z,20.95
2017-02-21T03:36:11.260Z,20.97
2017-02-21T03:37:11.329Z,20.95
2017-02-21T03:38:10.942Z,20.92
2017-02-21T03:39:10.959Z,20.95
2017-02-21T03:40:10.587Z,20.95
2017-02-21T03:41:11.407Z,20.98
2017-02-21T03:42:11.429Z,20.88
2017-02-21T03:43:11.454Z,20.99
2017-02-21T03:44:11.102Z,20.91
2017-02-21T03:45:11.115Z,20.92
2017-02-21T03:46:11.540Z,20.92
2017-02-21T03:47:11.568Z,20.88
2017-02-21T03:48:11.609Z,20.91
2017-02-21T03:49:11.242Z,20.98
2017-02-21T03:50:11.243Z,21.01
2017-02-21T03:51:10.880Z,20.94
2017-02-21T03:52:11.304Z,20.97
2017-02-21T03:53:11.727Z,20.97
2017-02-21T03:54:11.482Z,21.01
2017-02-21T03:55:11.798Z,20.97
2017-02-21T03:56:11.019Z,20.94
2017-02-21T03:57:11.040Z,20.97
2017-02-21T03:58:11.873Z,21.04
2017-02-21T03:59:11.882Z,21.01
2017-02-21T04:00:11.526Z,21.03
2017-02-21T04:01:11.543Z,20.98
2017-02-21T04:02:11.583Z,20.99
2017-02-21T04:03:11.617Z,21.03
2017-02-21T04:04:12.290Z,20.98
2017-02-21T04:05:11.654Z,20.97
2017-02-21T04:06:12.083Z,20.87
2017-02-21T04:07:12.104Z,20.95
2017-02-21T04:08:11.753Z,20.84
2017-02-21T04:09:12.408Z,21.03
2017-02-21T04:10:11.790Z,20.87
2017-02-21T04:11:12.209Z,20.88
2017-02-21T04:12:12.235Z,20.92
2017-02-21T04:13:11.878Z,20.97
2017-02-21T04:14:12.157Z,20.98
2017-02-21T04:15:12.318Z,20.94
2017-02-21T04:16:11.555Z,20.97
2017-02-21T04:17:12.366Z,20.92
2017-02-21T04:18:12.048Z,20.88
2017-02-21T04:19:12.279Z,20.85
2017-02-21T04:20:12.052Z,20.92
2017-02-21T04:21:12.094Z,20.95
2017-02-21T04:22:12.519Z,20.85
2017-02-21T04:23:12.536Z,20.91
2017-02-21T04:24:12.828Z,20.87
2017-02-21T04:25:12.183Z,20.88
2017-02-21T04:26:12.617Z,20.94
2017-02-21T04:27:11.851Z,20.85
2017-02-21T04:28:12.668Z,20.88
2017-02-21T04:29:12.554Z,20.89
2017-02-21T04:30:12.347Z,20.87
2017-02-21T04:31:12.369Z,20.87
2017-02-21T04:32:12.382Z,20.94
2017-02-21T04:33:12.828Z,20.87
2017-02-21T04:34:13.083Z,20.89
2017-02-21T04:35:12.860Z,20.84
2017-02-21T04:36:12.493Z,20.85
2017-02-21T04:37:12.522Z,20.89
2017-02-21T04:38:12.543Z,20.91
2017-02-21T04:39:12.824Z,20.97
2017-02-21T04:40:12.221Z,20.87
2017-02-21T04:41:13.016Z,20.89
2017-02-21T04:42:13.057Z,20.88
2017-02-21T04:43:13.075Z,20.89
2017-02-21T04:44:12.966Z,20.89
2017-02-21T04:45:13.139Z,20.87
2017-02-21T04:46:13.157Z,20.84
2017-02-21T04:47:13.194Z,20.87
2017-02-21T04:48:13.209Z,20.84
2017-02-21T04:49:12.699Z,20.87
2017-02-21T04:50:12.476Z,20.87
2017-02-21T04:51:12.507Z,20.85
2017-02-21T04:52:12.940Z,20.84
2017-02-21T04:53:12.554Z,20.88
2017-02-21T04:54:12.835Z,20.89
2017-02-21T04:55:12.624Z,20.88
2017-02-21T04:56:12.635Z,20.91
2017-02-21T04:57:13.473Z,20.87
2017-02-21T04:58:13.082Z,20.87
2017-02-21T04:59:13.780Z,20.87
2017-02-21T05:00:13.139Z,20.88
2017-02-21T05:01:13.569Z,20.88
2017-02-21T05:02:13.185Z,20.88
2017-02-21T05:03:13.610Z,20.88
2017-02-21T05:04:13.902Z,20.88
2017-02-21T05:05:13.287Z,20.91
2017-02-21T05:06:12.897Z,20.89
2017-02-21T05:07:13.730Z,20.85
2017-02-21T05:08:12.965Z,20.89
2017-02-21T05:09:14.035Z,20.92
2017-02-21T05:10:13.804Z,20.91
2017-02-21T05:11:13.832Z,20.87
2017-02-21T05:12:13.463Z,20.87
2017-02-21T05:13:13.494Z,20.88
2017-02-21T05:14:13.770Z,20.92
2017-02-21T05:15:13.971Z,20.89
2017-02-21T05:16:13.964Z,20.88
2017-02-21T05:17:14.006Z,20.88
2017-02-21T05:18:14.023Z,20.92
2017-02-21T05:19:13.902Z,20.88
2017-02-21T05:20:13.286Z,20.8
2017-02-21T05:21:14.112Z,20.89
2017-02-21T05:22:13.731Z,20.87
2017-02-21T05:23:14.173Z,20.85
2017-02-21T05:24:14.044Z,21.01
2017-02-21T05:25:13.811Z,20.94
2017-02-21T05:26:13.868Z,20.91
2017-02-21T05:27:13.872Z,20.92
2017-02-21T05:28:14.289Z,20.98
2017-02-21T05:29:14.578Z,20.85
2017-02-21T05:30:14.356Z,20.91
2017-02-21T05:31:13.578Z,21.06
2017-02-21T05:32:14.388Z,20.91
2017-02-21T05:33:14.436Z,20.97
2017-02-21T05:34:14.152Z,20.95
2017-02-21T05:35:14.086Z,20.94
2017-02-21T05:36:14.107Z,20.97
2017-02-21T05:37:14.155Z,20.94
2017-02-21T05:38:14.160Z,21.03
2017-02-21T05:39:14.581Z,20.95
2017-02-21T05:40:14.621Z,20.95
2017-02-21T05:41:14.247Z,21.06
2017-02-21T05:42:14.265Z,20.97
2017-02-21T05:43:14.304Z,21.01
2017-02-21T05:44:14.334Z,21.07
2017-02-21T05:45:14.354Z,21.07
2017-02-21T05:46:13.983Z,21.06
2017-02-21T05:47:14.796Z,21.07
2017-02-21T05:48:14.853Z,21.17
2017-02-21T05:49:14.465Z,21.1
2017-02-21T05:50:14.489Z,21.13
2017-02-21T05:51:14.525Z,21.17
2017-02-21T05:52:14.144Z,21.19
2017-02-21T05:53:14.972Z,21.17
2017-02-21T05:54:14.604Z,21.19
2017-02-21T05:55:14.621Z,21.19
2017-02-21T05:56:14.658Z,21.25
2017-02-21T05:57:14.279Z,21.29
2017-02-21T05:58:14.693Z,21.24
2017-02-21T05:59:14.737Z,21.27
2017-02-21T06:00:15.150Z,21.28
2017-02-21T06:01:14.810Z,21.21
2017-02-21T06:02:15.223Z,21.21
2017-02-21T06:03:15.232Z,21.34
2017-02-21T06:04:14.468Z,21.4
2017-02-21T06:05:15.305Z,21.38
2017-02-21T06:06:15.330Z,21.31
2017-02-21T06:07:14.942Z,21.32
2017-02-21T06:08:14.580Z,21.34
2017-02-21T06:09:15.003Z,21.38
2017-02-21T06:10:15.029Z,21.43
2017-02-21T06:11:14.660Z,21.43
2017-02-21T06:12:15.083Z,21.46
2017-02-21T06:13:15.102Z,21.46
2017-02-21T06:14:15.131Z,21.46
2017-02-21T06:15:15.416Z,21.47
2017-02-21T06:16:15.194Z,21.47
2017-02-21T06:17:15.218Z,21.49
2017-02-21T06:18:15.255Z,21.44
2017-02-21T06:19:15.295Z,21.46
2017-02-21T06:20:15.564Z,21.49
2017-02-21T06:21:15.332Z,21.47
2017-02-21T06:22:15.358Z,21.46
2017-02-21T06:23:15.787Z,21.46
2017-02-21T06:24:15.024Z,21.53
2017-02-21T06:25:15.689Z,21.54
2017-02-21T06:26:15.473Z,21.52
2017-02-21T06:27:15.094Z,21.58
2017-02-21T06:28:15.922Z,21.52
2017-02-21T06:29:15.949Z,21.62
2017-02-21T06:30:15.442Z,21.58
2017-02-21T06:31:15.600Z,21.59
2017-02-21T06:32:15.637Z,21.61
2017-02-21T06:33:16.058Z,21.58
2017-02-21T06:34:15.292Z,21.67
2017-02-21T06:35:15.967Z,21.61
2017-02-21T06:36:15.348Z,21.58
2017-02-21T06:37:15.366Z,21.54
2017-02-21T06:38:16.215Z,21.67
2017-02-21T06:39:15.833Z,21.68
2017-02-21T06:40:16.500Z,21.65
2017-02-21T06:41:16.285Z,21.68
2017-02-21T06:42:16.290Z,21.72
2017-02-21T06:43:16.322Z,21.75
2017-02-21T06:44:15.952Z,21.74
2017-02-21T06:45:16.235Z,21.71
2017-02-21T06:46:16.020Z,21.8
2017-02-21T06:47:16.445Z,21.72
2017-02-21T06:48:15.666Z,21.77
2017-02-21T06:49:15.698Z,21.86
2017-02-21T06:50:15.971Z,21.84
2017-02-21T06:51:15.748Z,21.9
2017-02-21T06:52:15.808Z,21.83
2017-02-21T06:53:15.802Z,21.86
2017-02-21T06:54:16.630Z,21.92
2017-02-21T06:55:16.523Z,21.8
2017-02-21T06:56:16.684Z,21.77
2017-02-21T06:57:16.316Z,21.91
2017-02-21T06:58:16.753Z,21.9
2017-02-21T06:59:16.353Z,21.83
2017-02-21T07:00:17.043Z,21.86
2017-02-21T07:01:16.418Z,21.91
2017-02-21T07:02:16.454Z,21.96
2017-02-21T07:03:16.473Z,21.91
2017-02-21T07:04:16.496Z,21.94
2017-02-21T07:05:17.178Z,21.84
2017-02-21T07:06:16.560Z,21.86
2017-02-21T07:07:16.584Z,21.98
2017-02-21T07:08:16.601Z,21.86
2017-02-21T07:09:16.629Z,21.9
2017-02-21T07:10:16.926Z,21.96
2017-02-21T07:11:17.095Z,21.86
2017-02-21T07:12:16.320Z,21.94
2017-02-21T07:13:16.351Z,21.98
2017-02-21T07:14:16.774Z,21.94
2017-02-21T07:15:16.661Z,21.98
2017-02-21T07:16:16.451Z,21.86
2017-02-21T07:17:16.460Z,21.92
2017-02-21T07:18:16.888Z,21.86
2017-02-21T07:19:16.905Z,21.96
2017-02-21T07:20:17.193Z,21.92
2017-02-21T07:21:17.355Z,21.88
2017-02-21T07:22:17.392Z,21.98
2017-02-21T07:23:17.429Z,21.99
2017-02-21T07:24:17.453Z,21.98
2017-02-21T07:25:17.329Z,21.84
2017-02-21T07:26:17.506Z,21.82
2017-02-21T07:27:17.131Z,22
2017-02-21T07:28:16.776Z,21.79
2017-02-21T07:29:17.580Z,21.9
2017-02-21T07:30:17.869Z,21.84
2017-02-21T07:31:16.842Z,21.94
2017-02-21T07:32:17.673Z,21.92
2017-02-21T07:33:17.304Z,21.82
2017-02-21T07:34:16.921Z,21.91
2017-02-21T07:35:17.996Z,21.91
2017-02-21T07:36:17.786Z,21.88
2017-02-21T07:37:17.832Z,21.74
2017-02-21T07:38:17.047Z,21.8
2017-02-21T07:39:17.458Z,21.88
2017-02-21T07:40:17.740Z,21.79
2017-02-21T07:41:17.118Z,21.91
2017-02-21T07:42:17.146Z,21.94
2017-02-21T07:43:17.187Z,21.91
2017-02-21T07:44:17.596Z,21.77
2017-02-21T07:45:17.225Z,21.86
2017-02-21T07:46:18.045Z,21.77
2017-02-21T07:47:17.685Z,21.9
2017-02-21T07:48:18.123Z,21.8
2017-02-21T07:49:18.184Z,21.86
2017-02-21T07:50:18.165Z,21.82
2017-02-21T07:51:17.797Z,21.88
2017-02-21T07:52:17.815Z,21.9
2017-02-21T07:53:17.847Z,21.83
2017-02-21T07:54:17.472Z,21.86
2017-02-21T07:55:18.304Z,21.71
2017-02-21T07:56:17.557Z,21.86
2017-02-21T07:57:17.962Z,21.84
2017-02-21T07:58:17.611Z,21.88
2017-02-21T07:59:17.620Z,21.86
2017-02-21T08:00:18.028Z,21.84
2017-02-21T08:01:18.465Z,21.79
2017-02-21T08:02:18.094Z,21.82
2017-02-21T08:03:18.127Z,21.8
2017-02-21T08:04:18.155Z,21.77
2017-02-21T08:05:18.188Z,21.83
2017-02-21T08:06:18.621Z,21.82
2017-02-21T08:07:18.647Z,21.75
2017-02-21T08:08:18.269Z,21.77
2017-02-21T08:09:18.683Z,21.75
2017-02-21T08:10:18.719Z,21.82
2017-02-21T08:11:18.344Z,21.74
2017-02-21T08:12:18.370Z,21.82
2017-02-21T08:13:18.805Z,21.77
2017-02-21T08:14:18.038Z,21.74
2017-02-21T08:15:18.856Z,21.77
2017-02-21T08:16:18.480Z,21.77
2017-02-21T08:17:18.513Z,21.69
2017-02-21T08:18:18.957Z,21.77
2017-02-21T08:19:18.563Z,21.8
2017-02-21T08:20:18.587Z,21.75
2017-02-21T08:21:18.632Z,21.75
2017-02-21T08:22:18.657Z,21.77
2017-02-21T08:23:18.673Z,21.71
2017-02-21T08:24:18.317Z,21.68
2017-02-21T08:25:18.731Z,21.74
2017-02-21T08:26:19.444Z,21.79
2017-02-21T08:27:18.388Z,21.69
2017-02-21T08:28:19.229Z,21.72
2017-02-21T08:29:18.837Z,21.69
2017-02-21T08:30:19.254Z,21.68
2017-02-21T08:31:19.539Z,21.74
2017-02-21T08:32:19.312Z,21.72
2017-02-21T08:33:18.948Z,21.71
2017-02-21T08:34:18.591Z,21.68
2017-02-21T08:35:18.601Z,21.67
2017-02-21T08:36:19.670Z,21.71
2017-02-21T08:37:19.466Z,21.74
2017-02-21T08:38:18.687Z,21.68
2017-02-21T08:39:19.512Z,21.68
2017-02-21T08:40:19.136Z,21.68
2017-02-21T08:41:19.821Z,21.68
2017-02-21T08:42:19.594Z,21.71
2017-02-21T08:43:19.627Z,21.65
2017-02-21T08:44:19.271Z,21.67
2017-02-21T08:45:19.292Z,21.67
2017-02-21T08:46:19.988Z,21.64
2017-02-21T08:47:19.730Z,21.68
2017-02-21T08:48:19.755Z,21.59
2017-02-21T08:49:19.799Z,21.62
2017-02-21T08:50:19.443Z,21.61
2017-02-21T08:51:19.048Z,21.62
2017-02-21T08:52:19.473Z,21.56
2017-02-21T08:53:19.102Z,21.58
2017-02-21T08:54:19.915Z,21.59
2017-02-21T08:55:19.565Z,21.54
2017-02-21T08:56:19.973Z,21.59
2017-02-21T08:57:20.021Z,21.58
2017-02-21T08:58:19.646Z,21.59
2017-02-21T08:59:20.075Z,21.58
2017-02-21T09:00:20.095Z,21.54
2017-02-21T09:01:20.115Z,21.53
2017-02-21T09:02:19.748Z,21.49
2017-02-21T09:03:20.174Z,21.54
2017-02-21T09:04:20.194Z,21.54
2017-02-21T09:05:19.818Z,21.49
2017-02-21T09:06:20.260Z,21.52
2017-02-21T09:07:19.889Z,21.5
2017-02-21T09:08:20.312Z,21.46
2017-02-21T09:09:19.937Z,21.49
2017-02-21T09:10:20.366Z,21.49
2017-02-21T09:11:20.383Z,21.46
2017-02-21T09:12:19.641Z,21.53
2017-02-21T09:13:20.437Z,21.44
2017-02-21T09:14:20.496Z,21.47
2017-02-21T09:15:20.493Z,21.47
2017-02-21T09:16:20.519Z,21.42
2017-02-21T09:17:19.755Z,21.5
2017-02-21T09:18:20.580Z,21.47
2017-02-21T09:19:20.249Z,21.44
2017-02-21T09:20:19.838Z,21.43
2017-02-21T09:21:20.673Z,21.47
2017-02-21T09:22:20.298Z,21.49
2017-02-21T09:23:20.710Z,21.42
2017-02-21T09:24:20.360Z,21.46
2017-02-21T09:25:20.771Z,21.4
2017-02-21T09:26:20.401Z,21.44
2017-02-21T09:27:20.826Z,21.43
2017-02-21T09:28:20.858Z,21.46
2017-02-21T09:29:20.879Z,21.37
2017-02-21T09:30:20.128Z,21.43
2017-02-21T09:31:20.929Z,21.47
2017-02-21T09:32:20.817Z,21.4
2017-02-21T09:33:20.599Z,21.43
2017-02-21T09:34:20.626Z,21.42
2017-02-21T09:35:20.260Z,21.42
2017-02-21T09:36:20.277Z,21.37
2017-02-21T09:37:21.346Z,21.47
2017-02-21T09:38:21.144Z,21.4
2017-02-21T09:39:20.759Z,21.4
2017-02-21T09:40:20.784Z,21.42
2017-02-21T09:41:21.213Z,21.32
2017-02-21T09:42:21.092Z,21.28
2017-02-21T09:43:20.862Z,21.13
2017-02-21T09:44:20.898Z,21.17
2017-02-21T09:45:20.927Z,21.07
2017-02-21T09:46:21.352Z,20.92
2017-02-21T09:47:21.620Z,21.03
2017-02-21T09:48:21.009Z,20.91
2017-02-21T09:49:20.633Z,20.84
2017-02-21T09:50:21.079Z,20.77
2017-02-21T09:51:21.484Z,20.8
2017-02-21T09:52:21.364Z,20.66
2017-02-21T09:53:21.533Z,20.61
2017-02-21T09:54:21.566Z,20.72
2017-02-21T09:55:21.194Z,20.66
2017-02-21T09:56:21.211Z,20.72
2017-02-21T09:57:21.100Z,20.72
2017-02-21T09:58:21.304Z,20.59
2017-02-21T09:59:21.692Z,20.67
2017-02-21T10:00:21.339Z,20.58
2017-02-21T10:01:20.972Z,20.62
2017-02-21T10:02:22.026Z,20.47
2017-02-21T10:03:21.400Z,20.48
2017-02-21T10:04:21.434Z,20.41
2017-02-21T10:05:21.873Z,20.42
2017-02-21T10:06:21.482Z,20.33
2017-02-21T10:07:22.162Z,20.33
2017-02-21T10:08:21.929Z,20.36
2017-02-21T10:09:21.575Z,20.36
2017-02-21T10:10:21.593Z,20.35
2017-02-21T10:11:21.226Z,20.24
2017-02-21T10:12:21.514Z,20.31
2017-02-21T10:13:22.080Z,20.32
2017-02-21T10:14:21.696Z,20.26
2017-02-21T10:15:22.141Z,20.28
2017-02-21T10:16:22.172Z,20.24
2017-02-21T10:17:22.034Z,20.23
2017-02-21T10:18:21.447Z,20.33
2017-02-21T10:19:22.252Z,20.32
2017-02-21T10:20:21.865Z,20.42
2017-02-21T10:21:22.290Z,20.43
2017-02-21T10:22:22.169Z,20.48
2017-02-21T10:23:21.548Z,20.57
2017-02-21T10:24:21.977Z,20.58
2017-02-21T10:25:22.013Z,20.61
2017-02-21T10:26:22.438Z,20.72
2017-02-21T10:27:22.298Z,20.66
2017-02-21T10:28:22.091Z,20.72
2017-02-21T10:29:22.100Z,20.77
2017-02-21T10:30:22.532Z,20.84
2017-02-21T10:31:22.578Z,20.76
2017-02-21T10:32:22.190Z,20.88
2017-02-21T10:33:22.209Z,20.89
2017-02-21T10:34:22.248Z,20.91
2017-02-21T10:35:22.665Z,20.85
2017-02-21T10:36:22.694Z,20.89
2017-02-21T10:37:22.735Z,20.99
2017-02-21T10:38:22.751Z,21.01
2017-02-21T10:39:22.375Z,20.95
2017-02-21T10:40:22.800Z,20.98
2017-02-21T10:41:22.833Z,21.01
2017-02-21T10:42:22.476Z,21.04
2017-02-21T10:43:22.499Z,21.03
2017-02-21T10:44:22.515Z,21.01
2017-02-21T10:45:22.941Z,21.01
2017-02-21T10:46:22.569Z,21.01
2017-02-21T10:47:22.986Z,21.03
2017-02-21T10:48:22.227Z,21.07
2017-02-21T10:49:23.052Z,21.06
2017-02-21T10:50:23.076Z,21.12
2017-02-21T10:51:22.697Z,21.03
2017-02-21T10:52:23.162Z,21.07
2017-02-21T10:53:22.371Z,21.13
2017-02-21T10:54:23.176Z,21.12
2017-02-21T10:55:22.809Z,21.13
2017-02-21T10:56:23.233Z,21.14
2017-02-21T10:57:22.494Z,21.12
2017-02-21T10:58:23.555Z,21.16
2017-02-21T10:59:22.918Z,21.1
2017-02-21T11:00:23.359Z,21.19
2017-02-21T11:01:22.981Z,21.16
2017-02-21T11:02:23.002Z,21.19
2017-02-21T11:03:23.283Z,21.17
2017-02-21T11:04:23.463Z,21.21
2017-02-21T11:05:22.692Z,21.19
2017-02-21T11:06:23.513Z,21.22
2017-02-21T11:07:23.134Z,21.25
2017-02-21T11:08:23.019Z,21.22
2017-02-21T11:09:23.244Z,21.27
2017-02-21T11:10:23.668Z,21.22
2017-02-21T11:11:22.861Z,21.24
2017-02-21T11:12:22.894Z,21.27
2017-02-21T11:13:23.959Z,21.24
2017-02-21T11:14:23.720Z,21.19
2017-02-21T11:15:23.756Z,21.21
2017-02-21T11:16:23.381Z,21.17
2017-02-21T11:17:23.034Z,21.28
2017-02-21T11:18:24.091Z,21.24
2017-02-21T11:19:23.863Z,21.28
2017-02-21T11:20:23.881Z,21.28
2017-02-21T11:21:23.517Z,21.22
2017-02-21T11:22:23.954Z,21.29
2017-02-21T11:23:23.860Z,21.29
2017-02-21T11:24:23.600Z,21.25
2017-02-21T11:25:24.072Z,21.21
2017-02-21T11:26:23.654Z,21.28
2017-02-21T11:27:23.284Z,21.28
2017-02-21T11:28:24.362Z,21.24
2017-02-21T11:29:24.135Z,21.25
2017-02-21T11:30:23.784Z,21.27
2017-02-21T11:31:24.189Z,21.27
2017-02-21T11:32:24.218Z,21.24
2017-02-21T11:33:24.503Z,21.32
2017-02-21T11:34:23.887Z,21.31
2017-02-21T11:35:23.904Z,21.35
2017-02-21T11:36:23.937Z,21.34
2017-02-21T11:37:23.972Z,21.32
2017-02-21T11:38:24.634Z,21.29
2017-02-21T11:39:24.403Z,21.37
2017-02-21T11:40:24.048Z,21.32
2017-02-21T11:41:24.065Z,21.34
2017-02-21T11:42:24.094Z,21.32
2017-02-21T11:43:24.370Z,21.27
2017-02-21T11:44:24.156Z,21.34
2017-02-21T11:45:24.188Z,21.31
2017-02-21T11:46:24.640Z,21.34
2017-02-21T11:47:23.825Z,21.32
2017-02-21T11:48:24.518Z,21.35
2017-02-21T11:49:24.678Z,21.4
2017-02-21T11:50:24.311Z,21.35
2017-02-21T11:51:24.736Z,21.37
2017-02-21T11:52:24.389Z,21.35
2017-02-21T11:53:25.034Z,21.35
2017-02-21T11:54:24.815Z,21.42
2017-02-21T11:55:24.448Z,21.4
2017-02-21T11:56:24.481Z,21.44
2017-02-21T11:57:24.122Z,21.37
2017-02-21T11:58:24.142Z,21.44
2017-02-21T11:59:24.551Z,21.43
2017-02-21T12:00:24.981Z,21.37
2017-02-21T12:01:25.025Z,21.43
2017-02-21T12:02:24.633Z,21.4
2017-02-21T12:03:25.078Z,21.43
2017-02-21T12:04:25.095Z,21.46
2017-02-21T12:05:24.320Z,21.49
2017-02-21T12:06:24.752Z,21.49
2017-02-21T12:07:25.182Z,21.46
2017-02-21T12:08:24.818Z,21.46
2017-02-21T12:09:24.447Z,21.54
2017-02-21T12:10:24.859Z,21.46
2017-02-21T12:11:24.901Z,21.49
2017-02-21T12:12:24.922Z,21.47
2017-02-21T12:13:24.950Z,21.52
2017-02-21T12:14:25.376Z,21.43
2017-02-21T12:15:25.391Z,21.49
2017-02-21T12:16:25.421Z,21.5
2017-02-21T12:17:24.660Z,21.52
2017-02-21T12:18:24.690Z,21.47
2017-02-21T12:19:25.499Z,21.5
2017-02-21T12:20:25.531Z,21.46
2017-02-21T12:21:25.573Z,21.5
2017-02-21T12:22:25.581Z,21.47
2017-02-21T12:23:25.215Z,21.49
2017-02-21T12:24:25.640Z,21.43
2017-02-21T12:25:25.668Z,21.47
2017-02-21T12:26:25.692Z,21.44
2017-02-21T12:27:25.720Z,21.49
2017-02-21T12:28:25.350Z,21.5
2017-02-21T12:29:25.398Z,21.53
2017-02-21T12:30:25.407Z,21.53
2017-02-21T12:31:25.437Z,21.46
2017-02-21T12:32:25.097Z,21.46
2017-02-21T12:33:25.886Z,21.46
2017-02-21T12:34:25.139Z,21.42
2017-02-21T12:35:25.543Z,21.47
2017-02-21T12:36:25.581Z,21.5
2017-02-21T12:37:25.617Z,21.4
2017-02-21T12:38:25.642Z,21.43
2017-02-21T12:39:26.303Z,21.44
2017-02-21T12:40:25.699Z,21.46
2017-02-21T12:41:25.319Z,21.49
2017-02-21T12:42:26.133Z,21.47
2017-02-21T12:43:25.766Z,21.43
2017-02-21T12:44:26.042Z,21.5
2017-02-21T12:45:25.818Z,21.42
2017-02-21T12:46:25.853Z,21.4
2017-02-21T12:47:25.481Z,21.38
2017-02-21T12:48:25.915Z,21.42
2017-02-21T12:49:26.575Z,21.32
2017-02-21T12:50:26.355Z,21.37
2017-02-21T12:51:26.384Z,21.4
2017-02-21T12:52:26.408Z,21.35
2017-02-21T12:53:26.042Z,21.31
2017-02-21T12:54:26.718Z,21.37
2017-02-21T12:55:25.699Z,21.44